createdAt,value
2018-12-27T00:04:26.121Z,4.6
2018-12-27T00:14:25.556Z,4
2018-12-27T00:24:25.005Z,3.3
2018-12-27T00:34:24.427Z,4.1
2018-12-27T00:44:23.927Z,3.2
2018-12-27T00:54:23.460Z,4.1
2018-12-27T01:04:22.962Z,3.8
2018-12-27T01:14:22.388Z,3.7
2018-12-27T01:24:21.741Z,3.7
2018-12-27T01:34:21.737Z,3.7
2018-12-27T01:44:21.135Z,2.8
2018-12-27T01:54:20.560Z,2.3
2018-12-27T02:04:21.061Z,1.5
2018-12-27T02:14:20.668Z,2.2
2018-12-27T02:24:20.382Z,3.3
2018-12-27T02:34:19.347Z,8
2018-12-27T02:44:17.275Z,7
2018-12-27T02:54:16.863Z,3.1
2018-12-27T03:04:19.605Z,3.3
2018-12-27T03:14:18.135Z,5.5
2018-12-27T03:24:18.269Z,2.2
2018-12-27T03:34:24.069Z,2
2018-12-27T03:44:23.952Z,2
2018-12-27T03:54:23.781Z,2.8
2018-12-27T04:04:21.801Z,4.8
2018-12-27T04:14:21.705Z,1.6
2018-12-27T04:24:20.192Z,4.9
2018-12-27T04:34:20.017Z,2.4
2018-12-27T04:44:19.958Z,2.1
2018-12-27T04:54:19.719Z,1.9
2018-12-27T05:04:19.560Z,5.6
2018-12-27T05:14:19.566Z,2.9
2018-12-27T05:24:18.038Z,5.5
2018-12-27T05:34:25.950Z,7.8
2018-12-27T05:44:25.008Z,9.2
2018-12-27T05:54:24.520Z,5.5
2018-12-27T06:04:24.052Z,3.2
2018-12-27T06:14:22.639Z,5.2
2018-12-27T06:24:22.493Z,3.3
2018-12-27T06:34:21.914Z,4.8
2018-12-27T06:44:20.267Z,6.5
2018-12-27T06:54:19.756Z,4.2
2018-12-27T07:04:19.246Z,4.9
2018-12-27T07:14:19.673Z,5.4
2018-12-27T07:24:19.464Z,6.8
2018-12-27T07:34:19.882Z,7.6
2018-12-27T07:44:28.272Z,15
2018-12-27T07:54:27.474Z,14.5
2018-12-27T08:04:27.217Z,7.9
2018-12-27T08:14:36.264Z,3
2018-12-27T08:24:36.905Z,4.1
2018-12-27T08:34:37.399Z,2.7
2018-12-27T08:44:43.949Z,1.5
2018-12-27T08:54:43.493Z,2.1
2018-12-27T09:04:42.937Z,1.9
2018-12-27T09:14:49.630Z,2.3
2018-12-27T09:24:49.255Z,2.6
2018-12-27T09:34:48.831Z,2.2
2018-12-27T09:44:57.947Z,1.8
2018-12-27T09:54:57.507Z,1.4
2018-12-27T10:04:57.567Z,2.4
2018-12-27T10:15:05.667Z,2.1
2018-12-27T10:25:09.163Z,2.1
2018-12-27T10:35:08.633Z,2.2
2018-12-27T10:45:12.712Z,3.1
2018-12-27T10:55:12.301Z,4.4
2018-12-27T11:05:11.856Z,1.2
2018-12-27T11:15:19.185Z,2
2018-12-27T11:25:18.663Z,2
2018-12-27T11:35:18.948Z,1.7
2018-12-27T11:45:25.944Z,1.7
2018-12-27T11:55:25.556Z,1.5
2018-12-27T12:05:24.987Z,2
2018-12-27T12:15:24.479Z,3.2
2018-12-27T12:25:23.895Z,3.3
2018-12-27T12:35:25.145Z,1.4
2018-12-27T12:45:25.265Z,1.7
2018-12-27T12:55:25.559Z,1.6
2018-12-27T13:05:24.969Z,2
2018-12-27T13:15:24.550Z,3.5
2018-12-27T13:25:24.088Z,4.4
2018-12-27T13:35:23.634Z,25.6
2018-12-27T13:45:23.042Z,8.2
2018-12-27T13:55:24.083Z,10.1
2018-12-27T14:05:23.564Z,29.7
2018-12-27T14:15:23.029Z,16.8
2018-12-27T14:25:29.313Z,15.8
2018-12-27T14:35:28.817Z,7.2
2018-12-27T14:45:28.246Z,38.6
2018-12-27T14:55:28.937Z,13.2
2018-12-27T15:05:29.463Z,18.8
2018-12-27T15:15:28.957Z,63
2018-12-27T15:25:28.405Z,16.2
2018-12-27T15:35:27.803Z,12.3
2018-12-27T15:45:27.178Z,10.5
2018-12-27T15:55:26.602Z,12.3
2018-12-27T16:05:26.615Z,7.8
2018-12-27T16:15:32.652Z,12.2
2018-12-27T16:25:32.182Z,31.7
2018-12-27T16:35:31.788Z,36.3
2018-12-27T16:45:38.998Z,15.1
2018-12-27T16:55:38.613Z,16.5
2018-12-27T17:05:38.162Z,20.1
2018-12-27T17:15:37.655Z,38.6
2018-12-27T17:25:37.227Z,87.8
2018-12-27T17:35:36.462Z,45.3
2018-12-27T17:45:36.022Z,44.9
2018-12-27T17:55:35.413Z,47
2018-12-27T18:05:38.095Z,34.2
2018-12-27T18:15:40.991Z,28.5
2018-12-27T18:25:42.434Z,23.6
2018-12-27T18:35:42.750Z,9.8
2018-12-27T18:45:42.252Z,5.3
2018-12-27T18:55:40.780Z,8.7
2018-12-27T19:05:40.205Z,6.1
2018-12-27T19:15:39.652Z,6.8
2018-12-27T19:25:39.138Z,4.8
2018-12-27T19:35:38.632Z,6.1
2018-12-27T19:45:41.483Z,5.8
2018-12-27T19:55:41.945Z,8
2018-12-27T20:05:41.538Z,6
2018-12-27T20:15:41.003Z,6.8
2018-12-27T20:25:40.201Z,8.1
2018-12-27T20:35:39.614Z,6
2018-12-27T20:45:39.315Z,6.6
2018-12-27T20:55:38.464Z,7.4
2018-12-27T21:05:38.121Z,5.3
2018-12-27T21:15:44.753Z,3.8
2018-12-27T21:25:43.814Z,6.6
2018-12-27T21:35:43.257Z,3.6
2018-12-27T21:45:42.802Z,6.6
2018-12-27T21:55:41.929Z,8.3
2018-12-27T22:05:41.472Z,4.5
2018-12-27T22:15:40.935Z,4
2018-12-27T22:25:40.542Z,5.9
2018-12-27T22:35:40.009Z,8.3
2018-12-27T22:45:39.424Z,5.3
2018-12-27T22:55:38.836Z,3.4
2018-12-27T23:05:37.872Z,5.4
2018-12-27T23:15:37.300Z,4
2018-12-27T23:25:36.788Z,3.2
2018-12-27T23:35:36.375Z,3.8
2018-12-27T23:45:35.761Z,3.3
2018-12-27T23:55:35.213Z,2.5
